sensor_id;sensor_type;location;lat;lon;timestamp;temperature;humidity
52919;DHT22;38793;52.690;6.812;2024-02-23T00:02:03;5.70;99.90
52919;DHT22;38793;52.690;6.812;2024-02-23T00:04:29;5.60;99.90
52919;DHT22;38793;52.690;6.812;2024-02-23T00:06:55;5.60;99.90
52919;DHT22;38793;52.690;6.812;2024-02-23T00:09:20;5.60;99.90
52919;DHT22;38793;52.690;6.812;2024-02-23T00:11:46;5.50;99.90
52919;DHT22;38793;52.690;6.812;2024-02-23T00:14:12;5.50;99.90
52919;DHT22;38793;52.690;6.812;2024-02-23T00:16:41;5.50;99.90
52919;DHT22;38793;52.690;6.812;2024-02-23T00:19:10;5.40;99.90
52919;DHT22;38793;52.690;6.812;2024-02-23T00:21:36;5.30;99.90
52919;DHT22;38793;52.690;6.812;2024-02-23T00:24:02;5.30;99.90
52919;DHT22;38793;52.690;6.812;2024-02-23T00:26:28;5.30;99.90
52919;DHT22;38793;52.690;6.812;2024-02-23T00:28:55;5.30;99.90
52919;DHT22;38793;52.690;6.812;2024-02-23T00:31:20;5.30;99.90
52919;DHT22;38793;52.690;6.812;2024-02-23T00:33:46;5.20;99.90
52919;DHT22;38793;52.690;6.812;2024-02-23T00:36:12;5.20;99.90
52919;DHT22;38793;52.690;6.812;2024-02-23T00:38:37;5.20;99.90
52919;DHT22;38793;52.690;6.812;2024-02-23T00:41:03;5.10;99.90
52919;DHT22;38793;52.690;6.812;2024-02-23T00:43:29;5.10;99.90
52919;DHT22;38793;52.690;6.812;2024-02-23T00:45:55;5.00;99.90
52919;DHT22;38793;52.690;6.812;2024-02-23T00:48:20;4.90;99.90
52919;DHT22;38793;52.690;6.812;2024-02-23T00:50:46;4.90;99.90
52919;DHT22;38793;52.690;6.812;2024-02-23T00:53:12;4.80;99.90
52919;DHT22;38793;52.690;6.812;2024-02-23T00:55:37;4.70;99.90
52919;DHT22;38793;52.690;6.812;2024-02-23T00:58:03;4.70;99.90
52919;DHT22;38793;52.690;6.812;2024-02-23T01:00:29;4.70;99.90
52919;DHT22;38793;52.690;6.812;2024-02-23T01:02:55;4.70;99.90
52919;DHT22;38793;52.690;6.812;2024-02-23T01:05:20;4.70;99.90
52919;DHT22;38793;52.690;6.812;2024-02-23T01:07:46;4.70;99.90
52919;DHT22;38793;52.690;6.812;2024-02-23T01:10:11;4.60;99.90
52919;DHT22;38793;52.690;6.812;2024-02-23T01:12:37;4.60;99.90
52919;DHT22;38793;52.690;6.812;2024-02-23T01:15:03;4.60;99.90
52919;DHT22;38793;52.690;6.812;2024-02-23T01:17:29;4.60;99.90
52919;DHT22;38793;52.690;6.812;2024-02-23T01:19:54;4.60;99.90
52919;DHT22;38793;52.690;6.812;2024-02-23T01:22:20;4.50;99.90
52919;DHT22;38793;52.690;6.812;2024-02-23T01:24:45;4.50;99.90
52919;DHT22;38793;52.690;6.812;2024-02-23T01:27:11;4.50;99.90
52919;DHT22;38793;52.690;6.812;2024-02-23T01:29:36;4.50;99.90
52919;DHT22;38793;52.690;6.812;2024-02-23T01:32:02;4.50;99.90
52919;DHT22;38793;52.690;6.812;2024-02-23T01:34:28;4.50;99.90
52919;DHT22;38793;52.690;6.812;2024-02-23T01:36:54;4.60;99.90
52919;DHT22;38793;52.690;6.812;2024-02-23T01:39:20;4.60;99.90
52919;DHT22;38793;52.690;6.812;2024-02-23T01:41:45;4.70;99.90
52919;DHT22;38793;52.690;6.812;2024-02-23T01:44:11;4.80;99.90
52919;DHT22;38793;52.690;6.812;2024-02-23T01:46:37;4.80;99.90
52919;DHT22;38793;52.690;6.812;2024-02-23T01:49:04;4.80;99.90
52919;DHT22;38793;52.690;6.812;2024-02-23T01:51:31;4.80;99.90
52919;DHT22;38793;52.690;6.812;2024-02-23T01:53:56;4.80;99.90
52919;DHT22;38793;52.690;6.812;2024-02-23T01:56:22;4.80;99.90
52919;DHT22;38793;52.690;6.812;2024-02-23T01:58:48;4.80;99.90
52919;DHT22;38793;52.690;6.812;2024-02-23T02:01:14;4.80;99.90
52919;DHT22;38793;52.690;6.812;2024-02-23T02:03:40;4.80;99.90
52919;DHT22;38793;52.690;6.812;2024-02-23T02:06:06;4.80;99.90
52919;DHT22;38793;52.690;6.812;2024-02-23T02:08:33;4.90;99.90
52919;DHT22;38793;52.690;6.812;2024-02-23T02:11:00;4.90;99.90
52919;DHT22;38793;52.690;6.812;2024-02-23T02:13:25;4.90;99.90
52919;DHT22;38793;52.690;6.812;2024-02-23T02:15:51;4.90;99.90
52919;DHT22;38793;52.690;6.812;2024-02-23T02:18:16;5.00;99.90
52919;DHT22;38793;52.690;6.812;2024-02-23T02:20:51;4.90;99.90
52919;DHT22;38793;52.690;6.812;2024-02-23T02:23:18;5.00;99.90
52919;DHT22;38793;52.690;6.812;2024-02-23T02:25:44;5.00;99.90
52919;DHT22;38793;52.690;6.812;2024-02-23T02:28:09;5.00;99.90
52919;DHT22;38793;52.690;6.812;2024-02-23T02:30:35;5.10;99.90
52919;DHT22;38793;52.690;6.812;2024-02-23T02:33:00;5.10;99.90
52919;DHT22;38793;52.690;6.812;2024-02-23T02:35:26;5.10;99.90
52919;DHT22;38793;52.690;6.812;2024-02-23T02:37:51;5.10;99.90
52919;DHT22;38793;52.690;6.812;2024-02-23T02:40:17;5.10;99.90
52919;DHT22;38793;52.690;6.812;2024-02-23T02:42:43;5.10;99.90
52919;DHT22;38793;52.690;6.812;2024-02-23T02:45:09;5.10;99.90
52919;DHT22;38793;52.690;6.812;2024-02-23T02:47:35;5.10;99.90
52919;DHT22;38793;52.690;6.812;2024-02-23T02:50:01;5.10;99.90
52919;DHT22;38793;52.690;6.812;2024-02-23T02:52:27;5.20;99.90
52919;DHT22;38793;52.690;6.812;2024-02-23T02:54:53;5.20;99.90
52919;DHT22;38793;52.690;6.812;2024-02-23T02:57:19;5.10;99.90
52919;DHT22;38793;52.690;6.812;2024-02-23T02:59:45;5.00;99.90
52919;DHT22;38793;52.690;6.812;2024-02-23T03:02:11;4.90;99.90
52919;DHT22;38793;52.690;6.812;2024-02-23T03:04:37;4.80;99.90
52919;DHT22;38793;52.690;6.812;2024-02-23T03:07:03;4.70;99.90
52919;DHT22;38793;52.690;6.812;2024-02-23T03:09:28;4.70;99.90
52919;DHT22;38793;52.690;6.812;2024-02-23T03:11:54;4.60;99.90
52919;DHT22;38793;52.690;6.812;2024-02-23T03:14:19;4.60;99.90
52919;DHT22;38793;52.690;6.812;2024-02-23T03:16:46;4.60;99.90
52919;DHT22;38793;52.690;6.812;2024-02-23T03:19:13;4.70;99.90
52919;DHT22;38793;52.690;6.812;2024-02-23T03:21:39;4.70;99.90
52919;DHT22;38793;52.690;6.812;2024-02-23T03:24:04;4.80;99.90
52919;DHT22;38793;52.690;6.812;2024-02-23T03:26:30;4.80;99.90
52919;DHT22;38793;52.690;6.812;2024-02-23T03:28:55;4.80;99.90
52919;DHT22;38793;52.690;6.812;2024-02-23T03:31:21;4.80;99.90
52919;DHT22;38793;52.690;6.812;2024-02-23T03:33:46;4.80;99.90
52919;DHT22;38793;52.690;6.812;2024-02-23T03:36:12;4.80;99.90
52919;DHT22;38793;52.690;6.812;2024-02-23T03:38:38;4.80;99.90
52919;DHT22;38793;52.690;6.812;2024-02-23T03:41:04;4.80;99.90
52919;DHT22;38793;52.690;6.812;2024-02-23T03:43:29;4.80;99.90
52919;DHT22;38793;52.690;6.812;2024-02-23T03:45:55;4.80;99.90
52919;DHT22;38793;52.690;6.812;2024-02-23T03:48:20;4.80;99.90
52919;DHT22;38793;52.690;6.812;2024-02-23T03:50:46;4.80;99.90
52919;DHT22;38793;52.690;6.812;2024-02-23T03:53:12;4.80;99.90
52919;DHT22;38793;52.690;6.812;2024-02-23T03:55:37;4.80;99.90
52919;DHT22;38793;52.690;6.812;2024-02-23T03:58:03;4.80;99.90
52919;DHT22;38793;52.690;6.812;2024-02-23T04:00:29;4.80;99.90
52919;DHT22;38793;52.690;6.812;2024-02-23T04:02:54;4.80;99.90
52919;DHT22;38793;52.690;6.812;2024-02-23T04:05:20;4.80;99.90
52919;DHT22;38793;52.690;6.812;2024-02-23T04:07:45;4.80;99.90
52919;DHT22;38793;52.690;6.812;2024-02-23T04:10:11;4.80;99.90
52919;DHT22;38793;52.690;6.812;2024-02-23T04:12:42;4.80;99.90
52919;DHT22;38793;52.690;6.812;2024-02-23T04:15:08;4.90;99.90
52919;DHT22;38793;52.690;6.812;2024-02-23T04:17:34;4.80;99.90
52919;DHT22;38793;52.690;6.812;2024-02-23T04:20:01;4.80;99.90
52919;DHT22;38793;52.690;6.812;2024-02-23T04:22:30;4.80;99.90
52919;DHT22;38793;52.690;6.812;2024-02-23T04:24:56;4.80;99.90
52919;DHT22;38793;52.690;6.812;2024-02-23T04:27:21;4.70;99.90
52919;DHT22;38793;52.690;6.812;2024-02-23T04:29:47;4.70;99.90
52919;DHT22;38793;52.690;6.812;2024-02-23T04:32:12;4.70;99.90
52919;DHT22;38793;52.690;6.812;2024-02-23T04:34:38;4.70;99.90
52919;DHT22;38793;52.690;6.812;2024-02-23T04:37:05;4.70;99.90
52919;DHT22;38793;52.690;6.812;2024-02-23T04:39:31;4.70;99.90
52919;DHT22;38793;52.690;6.812;2024-02-23T04:41:57;4.70;99.90
52919;DHT22;38793;52.690;6.812;2024-02-23T04:44:22;4.70;99.90
52919;DHT22;38793;52.690;6.812;2024-02-23T04:46:48;4.70;99.90
52919;DHT22;38793;52.690;6.812;2024-02-23T04:49:14;4.70;99.90
52919;DHT22;38793;52.690;6.812;2024-02-23T04:51:39;4.80;99.90
52919;DHT22;38793;52.690;6.812;2024-02-23T04:54:05;4.80;99.90
52919;DHT22;38793;52.690;6.812;2024-02-23T04:56:31;4.90;99.90
52919;DHT22;38793;52.690;6.812;2024-02-23T04:58:58;4.90;99.90
52919;DHT22;38793;52.690;6.812;2024-02-23T05:01:24;4.90;99.90
52919;DHT22;38793;52.690;6.812;2024-02-23T05:03:50;4.90;99.90
52919;DHT22;38793;52.690;6.812;2024-02-23T05:06:15;5.00;99.90
52919;DHT22;38793;52.690;6.812;2024-02-23T05:08:41;5.00;99.90
52919;DHT22;38793;52.690;6.812;2024-02-23T05:11:07;4.90;99.90
52919;DHT22;38793;52.690;6.812;2024-02-23T05:13:32;4.90;99.90
52919;DHT22;38793;52.690;6.812;2024-02-23T05:15:58;4.90;99.90
52919;DHT22;38793;52.690;6.812;2024-02-23T05:18:23;4.90;99.90
52919;DHT22;38793;52.690;6.812;2024-02-23T05:20:49;4.90;99.90
52919;DHT22;38793;52.690;6.812;2024-02-23T05:23:15;4.90;99.90
52919;DHT22;38793;52.690;6.812;2024-02-23T05:25:41;5.00;99.90
52919;DHT22;38793;52.690;6.812;2024-02-23T05:28:07;5.00;99.90
52919;DHT22;38793;52.690;6.812;2024-02-23T05:30:33;5.00;99.90
52919;DHT22;38793;52.690;6.812;2024-02-23T05:32:58;5.00;99.90
52919;DHT22;38793;52.690;6.812;2024-02-23T05:35:27;5.10;99.90
52919;DHT22;38793;52.690;6.812;2024-02-23T05:37:53;5.10;99.90
52919;DHT22;38793;52.690;6.812;2024-02-23T05:40:18;5.10;99.90
52919;DHT22;38793;52.690;6.812;2024-02-23T05:42:44;5.10;99.90
52919;DHT22;38793;52.690;6.812;2024-02-23T05:45:09;5.10;99.90
52919;DHT22;38793;52.690;6.812;2024-02-23T05:47:37;5.10;99.90
52919;DHT22;38793;52.690;6.812;2024-02-23T05:50:03;5.10;99.90
52919;DHT22;38793;52.690;6.812;2024-02-23T05:52:32;5.10;99.90
52919;DHT22;38793;52.690;6.812;2024-02-23T05:54:58;5.10;99.90
52919;DHT22;38793;52.690;6.812;2024-02-23T05:57:28;5.20;99.90
52919;DHT22;38793;52.690;6.812;2024-02-23T05:59:54;5.20;99.90
52919;DHT22;38793;52.690;6.812;2024-02-23T06:02:24;5.20;99.90
52919;DHT22;38793;52.690;6.812;2024-02-23T06:04:49;5.10;99.90
52919;DHT22;38793;52.690;6.812;2024-02-23T06:07:15;5.10;99.90
52919;DHT22;38793;52.690;6.812;2024-02-23T06:09:41;5.10;99.90
52919;DHT22;38793;52.690;6.812;2024-02-23T06:12:07;5.10;99.90
52919;DHT22;38793;52.690;6.812;2024-02-23T06:14:34;5.10;99.90
52919;DHT22;38793;52.690;6.812;2024-02-23T06:16:59;5.10;99.90
52919;DHT22;38793;52.690;6.812;2024-02-23T06:19:25;5.10;99.90
52919;DHT22;38793;52.690;6.812;2024-02-23T06:21:51;5.10;99.90
52919;DHT22;38793;52.690;6.812;2024-02-23T06:24:17;5.10;99.90
52919;DHT22;38793;52.690;6.812;2024-02-23T06:26:43;5.10;99.90
52919;DHT22;38793;52.690;6.812;2024-02-23T06:29:08;5.10;99.90
52919;DHT22;38793;52.690;6.812;2024-02-23T06:31:39;5.10;99.90
52919;DHT22;38793;52.690;6.812;2024-02-23T06:34:05;5.10;99.90
52919;DHT22;38793;52.690;6.812;2024-02-23T06:36:31;5.10;99.90
52919;DHT22;38793;52.690;6.812;2024-02-23T06:38:57;5.10;99.90
52919;DHT22;38793;52.690;6.812;2024-02-23T06:41:22;5.10;99.90
52919;DHT22;38793;52.690;6.812;2024-02-23T06:43:48;5.10;99.90
52919;DHT22;38793;52.690;6.812;2024-02-23T06:46:14;5.10;99.90
52919;DHT22;38793;52.690;6.812;2024-02-23T06:48:40;5.20;99.90
52919;DHT22;38793;52.690;6.812;2024-02-23T06:51:06;5.20;99.90
52919;DHT22;38793;52.690;6.812;2024-02-23T06:53:34;5.20;99.90
52919;DHT22;38793;52.690;6.812;2024-02-23T06:56:03;5.30;99.90
52919;DHT22;38793;52.690;6.812;2024-02-23T06:58:29;5.30;99.90
52919;DHT22;38793;52.690;6.812;2024-02-23T07:00:55;5.30;99.90
52919;DHT22;38793;52.690;6.812;2024-02-23T07:03:20;5.30;99.90
52919;DHT22;38793;52.690;6.812;2024-02-23T07:05:46;5.30;99.90
52919;DHT22;38793;52.690;6.812;2024-02-23T07:08:13;5.30;99.90
52919;DHT22;38793;52.690;6.812;2024-02-23T07:10:38;5.40;99.90
52919;DHT22;38793;52.690;6.812;2024-02-23T07:13:05;5.40;99.90
52919;DHT22;38793;52.690;6.812;2024-02-23T07:15:32;5.30;99.90
52919;DHT22;38793;52.690;6.812;2024-02-23T07:17:58;5.40;99.90
52919;DHT22;38793;52.690;6.812;2024-02-23T07:20:24;5.40;99.90
52919;DHT22;38793;52.690;6.812;2024-02-23T07:22:49;5.40;99.90
52919;DHT22;38793;52.690;6.812;2024-02-23T07:25:18;5.40;99.90
52919;DHT22;38793;52.690;6.812;2024-02-23T07:27:46;5.40;99.90
52919;DHT22;38793;52.690;6.812;2024-02-23T07:30:12;5.40;99.90
52919;DHT22;38793;52.690;6.812;2024-02-23T07:32:38;5.50;99.90
52919;DHT22;38793;52.690;6.812;2024-02-23T07:35:04;5.50;99.90
52919;DHT22;38793;52.690;6.812;2024-02-23T07:37:30;5.50;99.90
52919;DHT22;38793;52.690;6.812;2024-02-23T07:39:55;5.50;99.90
52919;DHT22;38793;52.690;6.812;2024-02-23T07:42:21;5.60;99.90
52919;DHT22;38793;52.690;6.812;2024-02-23T07:44:47;5.60;99.90
52919;DHT22;38793;52.690;6.812;2024-02-23T07:47:13;5.60;99.90
52919;DHT22;38793;52.690;6.812;2024-02-23T07:49:38;5.60;99.90
52919;DHT22;38793;52.690;6.812;2024-02-23T07:52:06;5.80;99.90
52919;DHT22;38793;52.690;6.812;2024-02-23T07:54:32;5.90;99.90
52919;DHT22;38793;52.690;6.812;2024-02-23T07:56:58;6.00;99.90
52919;DHT22;38793;52.690;6.812;2024-02-23T07:59:24;6.10;99.90
52919;DHT22;38793;52.690;6.812;2024-02-23T08:01:50;6.10;99.90
52919;DHT22;38793;52.690;6.812;2024-02-23T08:04:16;6.20;99.90
52919;DHT22;38793;52.690;6.812;2024-02-23T08:06:42;6.30;99.90
52919;DHT22;38793;52.690;6.812;2024-02-23T08:09:08;6.30;99.90
52919;DHT22;38793;52.690;6.812;2024-02-23T08:11:33;6.40;99.90
52919;DHT22;38793;52.690;6.812;2024-02-23T08:13:59;6.40;99.90
52919;DHT22;38793;52.690;6.812;2024-02-23T08:16:25;6.40;99.90
52919;DHT22;38793;52.690;6.812;2024-02-23T08:18:51;6.40;99.90
52919;DHT22;38793;52.690;6.812;2024-02-23T08:21:16;6.40;99.90
52919;DHT22;38793;52.690;6.812;2024-02-23T08:23:42;6.40;99.90
52919;DHT22;38793;52.690;6.812;2024-02-23T08:26:07;6.50;99.90
52919;DHT22;38793;52.690;6.812;2024-02-23T08:28:35;6.70;99.90
52919;DHT22;38793;52.690;6.812;2024-02-23T08:31:01;6.80;99.90
52919;DHT22;38793;52.690;6.812;2024-02-23T08:33:26;6.80;99.90
52919;DHT22;38793;52.690;6.812;2024-02-23T08:35:52;6.80;99.90
52919;DHT22;38793;52.690;6.812;2024-02-23T08:38:18;6.70;99.90
52919;DHT22;38793;52.690;6.812;2024-02-23T08:40:44;6.80;99.90
52919;DHT22;38793;52.690;6.812;2024-02-23T08:43:10;7.00;99.90
52919;DHT22;38793;52.690;6.812;2024-02-23T08:45:36;7.00;99.90
52919;DHT22;38793;52.690;6.812;2024-02-23T08:48:02;7.00;99.90
52919;DHT22;38793;52.690;6.812;2024-02-23T08:50:29;7.10;99.90
52919;DHT22;38793;52.690;6.812;2024-02-23T08:52:55;7.10;99.90
52919;DHT22;38793;52.690;6.812;2024-02-23T08:55:20;7.20;99.90
52919;DHT22;38793;52.690;6.812;2024-02-23T08:57:47;7.20;99.90
52919;DHT22;38793;52.690;6.812;2024-02-23T09:00:13;7.20;99.90
52919;DHT22;38793;52.690;6.812;2024-02-23T09:02:40;7.20;99.90
52919;DHT22;38793;52.690;6.812;2024-02-23T09:05:08;7.30;99.90
52919;DHT22;38793;52.690;6.812;2024-02-23T09:07:34;7.30;99.90
52919;DHT22;38793;52.690;6.812;2024-02-23T09:10:00;7.20;99.90
52919;DHT22;38793;52.690;6.812;2024-02-23T09:12:25;7.10;99.90
52919;DHT22;38793;52.690;6.812;2024-02-23T09:14:51;7.10;99.90
52919;DHT22;38793;52.690;6.812;2024-02-23T09:17:17;7.10;99.90
52919;DHT22;38793;52.690;6.812;2024-02-23T09:19:44;7.10;99.90
52919;DHT22;38793;52.690;6.812;2024-02-23T09:22:10;7.10;99.90
52919;DHT22;38793;52.690;6.812;2024-02-23T09:24:39;7.20;99.90
52919;DHT22;38793;52.690;6.812;2024-02-23T09:27:06;7.20;99.90
52919;DHT22;38793;52.690;6.812;2024-02-23T09:29:32;7.30;99.90
52919;DHT22;38793;52.690;6.812;2024-02-23T09:31:58;7.30;99.90
52919;DHT22;38793;52.690;6.812;2024-02-23T09:34:24;7.30;99.90
52919;DHT22;38793;52.690;6.812;2024-02-23T09:36:50;7.30;99.90
52919;DHT22;38793;52.690;6.812;2024-02-23T09:39:16;7.20;99.90
52919;DHT22;38793;52.690;6.812;2024-02-23T09:41:42;7.30;99.90
52919;DHT22;38793;52.690;6.812;2024-02-23T09:44:08;7.30;99.90
52919;DHT22;38793;52.690;6.812;2024-02-23T09:46:36;7.30;99.90
52919;DHT22;38793;52.690;6.812;2024-02-23T09:49:02;7.40;99.90
52919;DHT22;38793;52.690;6.812;2024-02-23T09:51:29;7.50;99.90
52919;DHT22;38793;52.690;6.812;2024-02-23T09:53:55;7.60;99.90
52919;DHT22;38793;52.690;6.812;2024-02-23T09:56:26;7.60;99.90
52919;DHT22;38793;52.690;6.812;2024-02-23T09:58:54;7.60;99.90
52919;DHT22;38793;52.690;6.812;2024-02-23T10:01:27;7.60;99.90
52919;DHT22;38793;52.690;6.812;2024-02-23T10:03:57;7.60;99.90
52919;DHT22;38793;52.690;6.812;2024-02-23T10:06:25;7.50;99.90
52919;DHT22;38793;52.690;6.812;2024-02-23T10:08:50;7.40;99.90
52919;DHT22;38793;52.690;6.812;2024-02-23T10:11:23;7.40;99.90
52919;DHT22;38793;52.690;6.812;2024-02-23T10:13:49;7.40;99.90
52919;DHT22;38793;52.690;6.812;2024-02-23T10:16:16;7.30;99.90
52919;DHT22;38793;52.690;6.812;2024-02-23T10:18:42;7.30;99.90
52919;DHT22;38793;52.690;6.812;2024-02-23T10:21:07;7.30;99.90
52919;DHT22;38793;52.690;6.812;2024-02-23T10:23:33;7.30;99.90
52919;DHT22;38793;52.690;6.812;2024-02-23T10:25:59;7.30;99.90
52919;DHT22;38793;52.690;6.812;2024-02-23T10:28:24;7.30;99.90
52919;DHT22;38793;52.690;6.812;2024-02-23T10:30:50;7.30;99.90
52919;DHT22;38793;52.690;6.812;2024-02-23T10:33:19;7.30;99.90
52919;DHT22;38793;52.690;6.812;2024-02-23T10:35:47;7.30;99.90
52919;DHT22;38793;52.690;6.812;2024-02-23T10:38:13;7.30;99.90
52919;DHT22;38793;52.690;6.812;2024-02-23T10:40:43;7.30;99.90
52919;DHT22;38793;52.690;6.812;2024-02-23T10:43:12;7.30;99.90
52919;DHT22;38793;52.690;6.812;2024-02-23T10:45:42;7.30;99.90
52919;DHT22;38793;52.690;6.812;2024-02-23T10:48:09;7.30;99.90
52919;DHT22;38793;52.690;6.812;2024-02-23T10:50:36;7.30;99.90
52919;DHT22;38793;52.690;6.812;2024-02-23T10:53:04;7.30;99.90
52919;DHT22;38793;52.690;6.812;2024-02-23T10:55:31;7.30;99.90
52919;DHT22;38793;52.690;6.812;2024-02-23T10:57:58;7.30;99.90
52919;DHT22;38793;52.690;6.812;2024-02-23T11:00:24;7.30;99.90
52919;DHT22;38793;52.690;6.812;2024-02-23T11:02:53;7.30;99.90
52919;DHT22;38793;52.690;6.812;2024-02-23T11:05:19;7.40;99.90
52919;DHT22;38793;52.690;6.812;2024-02-23T11:07:49;7.30;99.90
52919;DHT22;38793;52.690;6.812;2024-02-23T11:10:16;7.30;99.90
52919;DHT22;38793;52.690;6.812;2024-02-23T11:12:42;7.30;99.90
52919;DHT22;38793;52.690;6.812;2024-02-23T11:15:08;7.40;99.90
52919;DHT22;38793;52.690;6.812;2024-02-23T11:17:36;7.30;99.90
52919;DHT22;38793;52.690;6.812;2024-02-23T11:20:06;7.30;99.90
52919;DHT22;38793;52.690;6.812;2024-02-23T11:22:34;7.30;99.90
52919;DHT22;38793;52.690;6.812;2024-02-23T11:25:03;7.30;99.90
52919;DHT22;38793;52.690;6.812;2024-02-23T11:27:33;7.30;99.90
52919;DHT22;38793;52.690;6.812;2024-02-23T11:30:06;7.30;99.90
52919;DHT22;38793;52.690;6.812;2024-02-23T11:32:41;7.30;99.90
52919;DHT22;38793;52.690;6.812;2024-02-23T11:35:10;7.30;99.90
52919;DHT22;38793;52.690;6.812;2024-02-23T11:37:55;7.30;99.90
52919;DHT22;38793;52.690;6.812;2024-02-23T11:40:25;7.20;99.90
52919;DHT22;38793;52.690;6.812;2024-02-23T11:42:51;7.20;99.90
52919;DHT22;38793;52.690;6.812;2024-02-23T11:45:17;7.10;99.90
52919;DHT22;38793;52.690;6.812;2024-02-23T11:47:42;7.00;99.90
52919;DHT22;38793;52.690;6.812;2024-02-23T11:50:11;6.90;99.90
52919;DHT22;38793;52.690;6.812;2024-02-23T11:52:37;6.80;99.90
52919;DHT22;38793;52.690;6.812;2024-02-23T11:55:04;6.70;99.90
52919;DHT22;38793;52.690;6.812;2024-02-23T11:57:32;6.70;99.90
52919;DHT22;38793;52.690;6.812;2024-02-23T11:59:57;6.60;99.90
52919;DHT22;38793;52.690;6.812;2024-02-23T12:02:24;6.50;99.90
52919;DHT22;38793;52.690;6.812;2024-02-23T12:04:50;6.60;99.90
52919;DHT22;38793;52.690;6.812;2024-02-23T12:07:15;6.50;99.90
52919;DHT22;38793;52.690;6.812;2024-02-23T12:09:42;6.50;99.90
52919;DHT22;38793;52.690;6.812;2024-02-23T12:12:08;6.60;99.90
52919;DHT22;38793;52.690;6.812;2024-02-23T12:14:37;6.50;99.90
52919;DHT22;38793;52.690;6.812;2024-02-23T12:17:03;6.60;99.90
52919;DHT22;38793;52.690;6.812;2024-02-23T12:19:32;6.50;99.90
52919;DHT22;38793;52.690;6.812;2024-02-23T12:22:01;6.50;99.90
52919;DHT22;38793;52.690;6.812;2024-02-23T12:24:26;6.50;99.90
52919;DHT22;38793;52.690;6.812;2024-02-23T12:26:56;6.50;99.90
52919;DHT22;38793;52.690;6.812;2024-02-23T12:29:22;6.50;99.90
52919;DHT22;38793;52.690;6.812;2024-02-23T12:31:48;6.50;99.90
52919;DHT22;38793;52.690;6.812;2024-02-23T12:34:14;6.50;99.90
52919;DHT22;38793;52.690;6.812;2024-02-23T12:36:40;6.50;99.90
52919;DHT22;38793;52.690;6.812;2024-02-23T12:39:05;6.50;99.90
52919;DHT22;38793;52.690;6.812;2024-02-23T12:41:31;6.50;99.90
52919;DHT22;38793;52.690;6.812;2024-02-23T12:43:57;6.50;99.90
52919;DHT22;38793;52.690;6.812;2024-02-23T12:46:23;6.50;99.90
52919;DHT22;38793;52.690;6.812;2024-02-23T12:48:49;6.60;99.90
52919;DHT22;38793;52.690;6.812;2024-02-23T12:51:15;6.60;99.90
52919;DHT22;38793;52.690;6.812;2024-02-23T12:53:42;6.60;99.90
52919;DHT22;38793;52.690;6.812;2024-02-23T12:56:12;6.70;99.90
52919;DHT22;38793;52.690;6.812;2024-02-23T12:58:43;6.70;99.90
52919;DHT22;38793;52.690;6.812;2024-02-23T13:01:10;6.70;99.90
52919;DHT22;38793;52.690;6.812;2024-02-23T13:03:36;6.70;99.90
52919;DHT22;38793;52.690;6.812;2024-02-23T13:06:04;6.80;99.90
52919;DHT22;38793;52.690;6.812;2024-02-23T13:08:30;6.80;99.90
52919;DHT22;38793;52.690;6.812;2024-02-23T13:10:56;6.80;99.90
52919;DHT22;38793;52.690;6.812;2024-02-23T13:13:22;6.80;99.90
52919;DHT22;38793;52.690;6.812;2024-02-23T13:15:49;6.90;99.90
52919;DHT22;38793;52.690;6.812;2024-02-23T13:18:14;6.90;99.90
52919;DHT22;38793;52.690;6.812;2024-02-23T13:20:40;6.90;99.90
52919;DHT22;38793;52.690;6.812;2024-02-23T13:23:11;6.90;99.90
52919;DHT22;38793;52.690;6.812;2024-02-23T13:25:38;6.90;99.90
52919;DHT22;38793;52.690;6.812;2024-02-23T13:28:04;6.90;99.90
52919;DHT22;38793;52.690;6.812;2024-02-23T13:30:31;6.90;99.90
52919;DHT22;38793;52.690;6.812;2024-02-23T13:32:56;6.90;99.90
52919;DHT22;38793;52.690;6.812;2024-02-23T13:35:22;6.90;99.90
52919;DHT22;38793;52.690;6.812;2024-02-23T13:37:48;6.90;99.90
52919;DHT22;38793;52.690;6.812;2024-02-23T13:40:14;6.90;99.90
52919;DHT22;38793;52.690;6.812;2024-02-23T13:42:40;6.90;99.90
52919;DHT22;38793;52.690;6.812;2024-02-23T13:45:09;6.90;99.90
52919;DHT22;38793;52.690;6.812;2024-02-23T13:47:35;6.90;99.90
52919;DHT22;38793;52.690;6.812;2024-02-23T13:50:02;6.90;99.90
52919;DHT22;38793;52.690;6.812;2024-02-23T13:52:28;6.90;99.90
52919;DHT22;38793;52.690;6.812;2024-02-23T13:54:54;7.00;99.90
52919;DHT22;38793;52.690;6.812;2024-02-23T13:57:19;7.00;99.90
52919;DHT22;38793;52.690;6.812;2024-02-23T13:59:45;7.00;99.90
52919;DHT22;38793;52.690;6.812;2024-02-23T14:02:11;7.00;99.90
52919;DHT22;38793;52.690;6.812;2024-02-23T14:04:37;7.10;99.90
52919;DHT22;38793;52.690;6.812;2024-02-23T14:07:03;7.10;99.90
52919;DHT22;38793;52.690;6.812;2024-02-23T14:09:29;7.10;99.90
52919;DHT22;38793;52.690;6.812;2024-02-23T14:11:55;7.10;99.90
52919;DHT22;38793;52.690;6.812;2024-02-23T14:14:21;7.20;99.90
52919;DHT22;38793;52.690;6.812;2024-02-23T14:16:48;7.20;99.90
52919;DHT22;38793;52.690;6.812;2024-02-23T14:19:13;7.30;99.90
52919;DHT22;38793;52.690;6.812;2024-02-23T14:21:39;7.20;99.90
52919;DHT22;38793;52.690;6.812;2024-02-23T14:24:05;7.30;99.90
52919;DHT22;38793;52.690;6.812;2024-02-23T14:26:30;7.30;99.90
52919;DHT22;38793;52.690;6.812;2024-02-23T14:28:56;7.30;99.90
52919;DHT22;38793;52.690;6.812;2024-02-23T14:31:22;7.30;99.90
52919;DHT22;38793;52.690;6.812;2024-02-23T14:33:47;7.40;99.90
52919;DHT22;38793;52.690;6.812;2024-02-23T14:36:16;7.40;99.90
52919;DHT22;38793;52.690;6.812;2024-02-23T14:38:42;7.40;99.90
52919;DHT22;38793;52.690;6.812;2024-02-23T14:41:08;7.40;99.90
52919;DHT22;38793;52.690;6.812;2024-02-23T14:43:35;7.40;99.90
52919;DHT22;38793;52.690;6.812;2024-02-23T14:46:01;7.40;99.90
52919;DHT22;38793;52.690;6.812;2024-02-23T14:48:27;7.50;99.90
52919;DHT22;38793;52.690;6.812;2024-02-23T14:50:52;7.50;99.90
52919;DHT22;38793;52.690;6.812;2024-02-23T14:53:19;7.50;99.90
52919;DHT22;38793;52.690;6.812;2024-02-23T14:55:44;7.50;99.90
52919;DHT22;38793;52.690;6.812;2024-02-23T14:58:10;7.50;99.90
52919;DHT22;38793;52.690;6.812;2024-02-23T15:00:36;7.50;99.90
52919;DHT22;38793;52.690;6.812;2024-02-23T15:03:02;7.50;99.90
52919;DHT22;38793;52.690;6.812;2024-02-23T15:05:28;7.50;99.90
52919;DHT22;38793;52.690;6.812;2024-02-23T15:07:54;7.60;99.90
52919;DHT22;38793;52.690;6.812;2024-02-23T15:10:20;7.60;99.90
52919;DHT22;38793;52.690;6.812;2024-02-23T15:12:46;7.60;99.90
52919;DHT22;38793;52.690;6.812;2024-02-23T15:15:11;7.60;99.90
52919;DHT22;38793;52.690;6.812;2024-02-23T15:17:37;7.60;99.90
52919;DHT22;38793;52.690;6.812;2024-02-23T15:20:04;7.50;99.90
52919;DHT22;38793;52.690;6.812;2024-02-23T15:22:29;7.50;99.90
52919;DHT22;38793;52.690;6.812;2024-02-23T15:24:55;7.60;99.90
52919;DHT22;38793;52.690;6.812;2024-02-23T15:27:23;7.60;99.90
52919;DHT22;38793;52.690;6.812;2024-02-23T15:29:49;7.50;99.90
52919;DHT22;38793;52.690;6.812;2024-02-23T15:32:15;7.50;99.90
52919;DHT22;38793;52.690;6.812;2024-02-23T15:34:40;7.50;99.90
52919;DHT22;38793;52.690;6.812;2024-02-23T15:37:06;7.50;99.90
52919;DHT22;38793;52.690;6.812;2024-02-23T15:39:32;7.50;99.90